Time;durP1;ratioP1;P1;durP2;ratioP2;P2;SDS_P1;SDS_P2;PMS_P1;PMS_P2;Temp;Humidity;BMP_temperature;BMP_pressure;BME280_temperature;BME280_humidity;BME280_pressure;Samples;Min_cycle;Max_cycle;Signal;HPM_P1;HPM_P2
2022/05/01 00:00:05;;;;;;;;;;;6.80;99.90;;;;;;5020030;28;37730;-59
2022/05/01 00:02:32;;;;;;;;;;;6.80;99.90;;;;;;5020968;28;38838;-59
2022/05/01 00:04:59;;;;;;;;;;;6.80;99.90;;;;;;5018784;28;37067;-59
2022/05/01 00:07:26;;;;;;;;;;;6.70;99.90;;;;;;5021202;28;36810;-59
2022/05/01 00:09:54;;;;;;;;;;;6.80;99.90;;;;;;5019233;28;37168;-59
2022/05/01 00:12:22;;;;;;;;;;;6.80;99.80;;;;;;5020838;28;39158;-59
2022/05/01 00:14:50;;;;;;;;;;;6.70;99.30;;;;;;5023080;28;37226;-59
2022/05/01 00:17:17;;;;;;;;;;;6.60;98.90;;;;;;5022926;28;36127;-59
2022/05/01 00:19:44;;;;;;;;;;;6.50;98.30;;;;;;5021693;28;42090;-59
2022/05/01 00:22:11;;;;;;;;;;;6.30;98.80;;;;;;5023879;28;37869;-59
2022/05/01 00:24:38;;;;;;;;;;;6.30;98.90;;;;;;5023785;28;36826;-59
2022/05/01 00:27:07;;;;;;;;;;;6.20;99.10;;;;;;5023400;28;38860;-59
2022/05/01 00:29:36;;;;;;;;;;;6.10;99.20;;;;;;5022886;28;41062;-59
2022/05/01 00:32:04;;;;;;;;;;;6.10;99.20;;;;;;5022840;28;37821;-59
2022/05/01 00:37:19;;;;;;;;;;;6.10;99.40;;;;;;5022653;28;37654;-59
2022/05/01 00:39:47;;;;;;;;;;;6.10;99.30;;;;;;5022741;28;40433;-59
2022/05/01 00:42:16;;;;;;;;;;;6.10;99.50;;;;;;5022618;28;37795;-59
2022/05/01 00:44:43;;;;;;;;;;;6.10;99.40;;;;;;5022362;28;37642;-59
2022/05/01 00:47:11;;;;;;;;;;;6.10;99.60;;;;;;5021299;28;36989;-59
2022/05/01 00:49:38;;;;;;;;;;;6.00;99.50;;;;;;5022486;28;38207;-59
2022/05/01 00:52:07;;;;;;;;;;;6.00;99.50;;;;;;5022560;28;38554;-59
2022/05/01 00:54:35;;;;;;;;;;;5.90;99.40;;;;;;5022632;28;38501;-59
2022/05/01 00:57:03;;;;;;;;;;;5.90;99.40;;;;;;5022772;28;38372;-59
2022/05/01 00:59:32;;;;;;;;;;;5.90;99.30;;;;;;5022941;28;37566;-59
2022/05/01 01:02:00;;;;;;;;;;;5.90;99.20;;;;;;5023720;28;38549;-59
2022/05/01 01:04:27;;;;;;;;;;;5.90;99.10;;;;;;5023254;28;38230;-59
2022/05/01 01:06:54;;;;;;;;;;;5.90;99.20;;;;;;5022073;28;35055;-59
2022/05/01 01:09:21;;;;;;;;;;;5.90;99.10;;;;;;5022124;28;37705;-59
2022/05/01 01:12:53;;;;;;;;;;;5.90;99.20;;;;;;5023250;28;36602;-59
2022/05/01 01:14:37;;;;;;;;;;;5.80;98.80;;;;;;5021832;28;36721;-59
2022/05/01 01:17:07;;;;;;;;;;;5.80;99.00;;;;;;5023024;28;37049;-59
2022/05/01 01:19:34;;;;;;;;;;;5.80;98.90;;;;;;5022080;28;39209;-59
2022/05/01 01:22:03;;;;;;;;;;;5.80;99.10;;;;;;5022639;28;37201;-59
2022/05/01 01:24:33;;;;;;;;;;;5.90;99.00;;;;;;5021366;28;37057;-59
2022/05/01 01:27:02;;;;;;;;;;;5.80;98.50;;;;;;5021242;28;35242;-59
2022/05/01 01:32:13;;;;;;;;;;;5.70;98.60;;;;;;5022769;28;40327;-59
2022/05/01 01:34:42;;;;;;;;;;;5.70;98.40;;;;;;5021994;28;38208;-59
2022/05/01 01:37:12;;;;;;;;;;;5.60;98.50;;;;;;5021942;28;36521;-59
2022/05/01 01:39:40;;;;;;;;;;;5.60;98.90;;;;;;5022611;28;38660;-59
2022/05/01 01:42:08;;;;;;;;;;;5.60;98.80;;;;;;5021984;28;39161;-59
2022/05/01 01:44:37;;;;;;;;;;;5.60;98.90;;;;;;5021683;28;35949;-58
2022/05/01 01:47:05;;;;;;;;;;;5.60;98.70;;;;;;5022455;28;37003;-59
2022/05/01 01:49:32;;;;;;;;;;;5.60;98.40;;;;;;5022021;28;37274;-59
2022/05/01 01:51:59;;;;;;;;;;;5.50;98.90;;;;;;5022851;28;38239;-59
2022/05/01 01:54:28;;;;;;;;;;;5.50;98.90;;;;;;5021929;28;37218;-59
2022/05/01 01:56:55;;;;;;;;;;;5.50;99.00;;;;;;5021819;28;36910;-59
2022/05/01 01:59:23;;;;;;;;;;;5.50;98.90;;;;;;5021838;28;37448;-59
2022/05/01 02:01:50;;;;;;;;;;;5.50;98.90;;;;;;5020768;28;37754;-59
2022/05/01 02:04:17;;;;;;;;;;;5.50;98.90;;;;;;5021906;28;37598;-59
2022/05/01 02:06:44;;;;;;;;;;;5.50;98.70;;;;;;5020290;28;36502;-58
2022/05/01 02:09:12;;;;;;;;;;;5.40;98.50;;;;;;5021731;28;37474;-59
2022/05/01 02:11:40;;;;;;;;;;;5.30;98.70;;;;;;5021644;28;39455;-59
2022/05/01 02:14:07;;;;;;;;;;;5.20;98.80;;;;;;5020360;28;40023;-59
2022/05/01 02:16:34;;;;;;;;;;;5.10;99.60;;;;;;5021565;28;36198;-59
2022/05/01 02:19:01;;;;;;;;;;;5.10;99.40;;;;;;5020336;28;36026;-59
2022/05/01 02:21:37;;;;;;;;;;;5.10;99.20;;;;;;5019693;28;37848;-59
2022/05/01 02:24:08;;;;;;;;;;;5.00;99.00;;;;;;5022049;28;36225;-59
2022/05/01 02:26:36;;;;;;;;;;;5.00;99.10;;;;;;5021376;28;38084;-59
2022/05/01 02:29:09;;;;;;;;;;;4.90;99.20;;;;;;5020009;28;38429;-59
2022/05/01 02:31:38;;;;;;;;;;;4.90;99.30;;;;;;5021831;28;36601;-59
2022/05/01 02:34:05;;;;;;;;;;;4.80;99.40;;;;;;5021109;28;35807;-59
2022/05/01 02:36:32;;;;;;;;;;;4.80;99.50;;;;;;5019690;28;37681;-59
2022/05/01 02:38:59;;;;;;;;;;;4.90;99.40;;;;;;5021144;28;36591;-59
2022/05/01 02:41:27;;;;;;;;;;;4.90;99.00;;;;;;5020720;28;38035;-59
2022/05/01 02:43:56;;;;;;;;;;;4.80;99.10;;;;;;5020384;28;37905;-59
2022/05/01 02:46:26;;;;;;;;;;;4.80;99.60;;;;;;5020678;28;34708;-59
2022/05/01 02:48:53;;;;;;;;;;;4.70;99.80;;;;;;5020737;28;37499;-59
2022/05/01 02:51:20;;;;;;;;;;;4.70;99.90;;;;;;5021165;28;38089;-59
2022/05/01 02:53:47;;;;;;;;;;;4.70;99.90;;;;;;5020680;28;38218;-59
2022/05/01 02:56:14;;;;;;;;;;;4.60;99.70;;;;;;5020472;28;35196;-59
2022/05/01 02:58:41;;;;;;;;;;;4.60;99.70;;;;;;5020887;28;39627;-59
2022/05/01 03:01:08;;;;;;;;;;;4.60;99.90;;;;;;5021124;28;37790;-59
2022/05/01 03:03:37;;;;;;;;;;;4.70;99.90;;;;;;5020331;28;37051;-59
2022/05/01 03:06:05;;;;;;;;;;;4.70;99.90;;;;;;5020743;28;34648;-59
2022/05/01 03:08:33;;;;;;;;;;;4.60;99.90;;;;;;5021139;28;38358;-59
2022/05/01 03:11:01;;;;;;;;;;;4.60;99.90;;;;;;5020731;28;38896;-59
2022/05/01 03:13:28;;;;;;;;;;;4.60;99.90;;;;;;5019830;28;36712;-59
2022/05/01 03:15:55;;;;;;;;;;;4.60;99.90;;;;;;5020795;28;36055;-59
2022/05/01 03:23:53;;;;;;;;;;;4.60;99.90;;;;;;5020562;28;37985;-59
2022/05/01 03:26:20;;;;;;;;;;;4.60;99.90;;;;;;5021036;28;36446;-59
2022/05/01 03:28:47;;;;;;;;;;;4.60;99.90;;;;;;5020377;28;38567;-59
2022/05/01 03:31:14;;;;;;;;;;;4.60;99.90;;;;;;5019189;28;38175;-59
2022/05/01 03:33:42;;;;;;;;;;;4.60;99.90;;;;;;5020029;28;37768;-59
2022/05/01 03:36:11;;;;;;;;;;;4.50;99.70;;;;;;5020507;28;36397;-59
2022/05/01 03:38:39;;;;;;;;;;;4.50;99.50;;;;;;5019963;28;37820;-60
2022/05/01 03:41:07;;;;;;;;;;;4.40;98.80;;;;;;5019852;28;37907;-59
2022/05/01 03:43:35;;;;;;;;;;;4.30;98.80;;;;;;5018952;28;36909;-59
2022/05/01 03:46:02;;;;;;;;;;;4.20;99.20;;;;;;5019826;28;36578;-59
2022/05/01 03:48:29;;;;;;;;;;;4.10;99.40;;;;;;5023049;28;37833;-59
2022/05/01 03:50:56;;;;;;;;;;;4.10;99.50;;;;;;5023213;28;37429;-59
2022/05/01 03:53:25;;;;;;;;;;;4.10;99.90;;;;;;5023677;28;36932;-59
2022/05/01 03:55:52;;;;;;;;;;;4.20;99.90;;;;;;5023875;28;36744;-59
2022/05/01 03:58:20;;;;;;;;;;;4.10;99.70;;;;;;5023293;28;36635;-59
2022/05/01 04:00:48;;;;;;;;;;;4.10;99.20;;;;;;5024223;28;36968;-59
2022/05/01 04:03:15;;;;;;;;;;;4.00;99.30;;;;;;5023821;28;37042;-59
2022/05/01 04:05:42;;;;;;;;;;;4.00;99.20;;;;;;5022634;28;37447;-59
2022/05/01 04:08:09;;;;;;;;;;;3.90;99.20;;;;;;5022581;28;37761;-59
2022/05/01 04:10:39;;;;;;;;;;;3.90;99.60;;;;;;5022398;28;37946;-59
2022/05/01 04:13:06;;;;;;;;;;;3.90;99.70;;;;;;5023922;28;37692;-59
2022/05/01 04:15:34;;;;;;;;;;;4.00;99.90;;;;;;5022829;28;36436;-59
2022/05/01 04:18:02;;;;;;;;;;;4.00;99.90;;;;;;5023024;28;37520;-59
2022/05/01 04:20:29;;;;;;;;;;;4.00;99.90;;;;;;5024133;28;36760;-55
2022/05/01 04:22:57;;;;;;;;;;;4.00;99.90;;;;;;5023834;28;37054;-55
2022/05/01 04:25:25;;;;;;;;;;;4.00;99.90;;;;;;5023585;28;37809;-55
2022/05/01 04:27:54;;;;;;;;;;;4.00;99.90;;;;;;5022518;28;37620;-56
2022/05/01 04:30:22;;;;;;;;;;;4.00;99.90;;;;;;5023621;28;39714;-56
2022/05/01 04:32:50;;;;;;;;;;;4.10;99.90;;;;;;5021959;28;36457;-55
2022/05/01 04:35:23;;;;;;;;;;;4.10;99.90;;;;;;5022943;28;35319;-55
2022/05/01 04:37:50;;;;;;;;;;;4.10;99.90;;;;;;5022566;28;37946;-54
2022/05/01 04:40:18;;;;;;;;;;;4.20;99.90;;;;;;5023854;28;38138;-55
2022/05/01 04:42:45;;;;;;;;;;;4.30;99.90;;;;;;5022564;28;37041;-55
2022/05/01 04:45:13;;;;;;;;;;;4.30;99.90;;;;;;5021875;28;35770;-53
2022/05/01 04:47:40;;;;;;;;;;;4.40;99.90;;;;;;5022677;28;39596;-55
2022/05/01 04:50:08;;;;;;;;;;;4.60;99.90;;;;;;5022931;28;36955;-54
2022/05/01 04:52:36;;;;;;;;;;;4.70;99.90;;;;;;5021538;28;38023;-55
2022/05/01 04:55:07;;;;;;;;;;;4.90;99.90;;;;;;5022950;28;36275;-56
2022/05/01 04:57:34;;;;;;;;;;;5.10;99.90;;;;;;5020822;28;37710;-55
2022/05/01 05:00:01;;;;;;;;;;;5.30;99.20;;;;;;5021303;28;39419;-55
2022/05/01 05:02:37;;;;;;;;;;;5.40;99.00;;;;;;5022340;28;37735;-55
2022/05/01 05:05:04;;;;;;;;;;;5.50;99.00;;;;;;5022354;28;37421;-55
2022/05/01 05:07:31;;;;;;;;;;;5.70;98.80;;;;;;5021303;28;38908;-55
2022/05/01 05:09:57;;;;;;;;;;;5.80;98.50;;;;;;5023317;28;36698;-55
2022/05/01 05:12:25;;;;;;;;;;;6.00;98.70;;;;;;5022679;28;37219;-55
2022/05/01 05:14:54;;;;;;;;;;;6.20;98.60;;;;;;5022989;28;36890;-54
2022/05/01 05:17:22;;;;;;;;;;;6.30;98.30;;;;;;5022072;28;37728;-55
2022/05/01 05:19:50;;;;;;;;;;;6.40;98.10;;;;;;5020959;28;38570;-56
2022/05/01 05:22:17;;;;;;;;;;;6.50;97.40;;;;;;5022218;28;37011;-55
2022/05/01 05:24:45;;;;;;;;;;;6.60;98.30;;;;;;5023315;28;36996;-55
2022/05/01 05:27:12;;;;;;;;;;;6.80;99.10;;;;;;5021524;28;36851;-55
2022/05/01 05:29:39;;;;;;;;;;;6.90;99.10;;;;;;5022023;28;37891;-55
2022/05/01 05:32:07;;;;;;;;;;;7.00;98.10;;;;;;5023537;28;38319;-55
2022/05/01 05:34:34;;;;;;;;;;;7.10;97.60;;;;;;5021193;28;36588;-55
2022/05/01 05:37:03;;;;;;;;;;;7.20;97.80;;;;;;5023586;28;38465;-55
2022/05/01 05:39:30;;;;;;;;;;;7.20;97.10;;;;;;5022620;28;39191;-55
2022/05/01 05:41:57;;;;;;;;;;;7.40;98.40;;;;;;5021566;28;36112;-55
2022/05/01 05:44:24;;;;;;;;;;;7.50;97.90;;;;;;5021100;28;37874;-56
2022/05/01 05:46:51;;;;;;;;;;;7.70;97.80;;;;;;5020482;28;38505;-55
2022/05/01 05:49:18;;;;;;;;;;;7.90;97.70;;;;;;5022236;28;38217;-55
2022/05/01 05:51:46;;;;;;;;;;;7.90;97.50;;;;;;5022198;28;38486;-55
2022/05/01 05:54:16;;;;;;;;;;;8.10;97.70;;;;;;5020781;28;35243;-55
2022/05/01 05:56:43;;;;;;;;;;;8.10;97.80;;;;;;5022014;28;38384;-55
2022/05/01 05:59:11;;;;;;;;;;;8.20;98.40;;;;;;5020865;28;37546;-56
2022/05/01 06:01:38;;;;;;;;;;;8.40;98.90;;;;;;5020928;28;36887;-56
2022/05/01 06:04:05;;;;;;;;;;;8.70;98.40;;;;;;5020595;28;36523;-55
2022/05/01 06:06:33;;;;;;;;;;;8.90;98.70;;;;;;5021711;28;36581;-56
2022/05/01 06:09:00;;;;;;;;;;;9.20;98.90;;;;;;5021962;28;37829;-56
2022/05/01 06:11:29;;;;;;;;;;;9.50;98.40;;;;;;5021628;28;38555;-56
2022/05/01 06:13:56;;;;;;;;;;;9.60;97.30;;;;;;5021749;28;37421;-55
2022/05/01 06:16:25;;;;;;;;;;;9.70;97.50;;;;;;5021241;28;37904;-54
2022/05/01 06:18:52;;;;;;;;;;;9.90;97.20;;;;;;5022223;28;37715;-56
2022/05/01 06:21:19;;;;;;;;;;;10.10;97.10;;;;;;5021587;28;38161;-56
2022/05/01 06:23:48;;;;;;;;;;;10.40;96.50;;;;;;5020951;28;36491;-56
2022/05/01 06:26:15;;;;;;;;;;;10.50;96.50;;;;;;5021404;28;38668;-56
2022/05/01 06:28:43;;;;;;;;;;;10.70;96.60;;;;;;5020629;28;38273;-56
2022/05/01 06:31:13;;;;;;;;;;;10.80;96.80;;;;;;5022008;28;37512;-55
2022/05/01 06:33:40;;;;;;;;;;;11.00;96.60;;;;;;5021058;28;37013;-56
2022/05/01 06:36:08;;;;;;;;;;;11.10;95.90;;;;;;5021215;28;38069;-56
2022/05/01 06:38:36;;;;;;;;;;;11.30;96.20;;;;;;5021714;28;38569;-56
2022/05/01 06:41:03;;;;;;;;;;;11.40;95.70;;;;;;5021457;28;37013;-55
2022/05/01 06:43:31;;;;;;;;;;;11.50;96.50;;;;;;5021769;28;37797;-56
2022/05/01 06:46:00;;;;;;;;;;;11.60;96.00;;;;;;5021811;28;37864;-56
2022/05/01 06:48:27;;;;;;;;;;;11.90;95.30;;;;;;5020612;28;39556;-56
2022/05/01 06:50:54;;;;;;;;;;;12.10;95.30;;;;;;5020170;28;37213;-55
2022/05/01 06:53:21;;;;;;;;;;;12.30;95.30;;;;;;5021307;28;37460;-55
2022/05/01 06:55:49;;;;;;;;;;;12.30;94.90;;;;;;5020217;28;38595;-56
2022/05/01 06:58:16;;;;;;;;;;;12.30;93.80;;;;;;5020949;28;37733;-56
2022/05/01 07:00:43;;;;;;;;;;;12.20;94.40;;;;;;5020901;28;37286;-55
2022/05/01 07:03:11;;;;;;;;;;;12.20;94.00;;;;;;5020343;28;36180;-56
2022/05/01 07:05:38;;;;;;;;;;;12.30;94.40;;;;;;5020627;28;37636;-56
2022/05/01 07:08:05;;;;;;;;;;;12.20;94.80;;;;;;5021489;28;39725;-55
2022/05/01 07:10:32;;;;;;;;;;;12.30;94.40;;;;;;5021233;28;37293;-55
2022/05/01 07:13:01;;;;;;;;;;;12.30;95.30;;;;;;5021069;28;36613;-55
2022/05/01 07:15:28;;;;;;;;;;;12.40;94.80;;;;;;5019850;28;38319;-55
2022/05/01 07:17:55;;;;;;;;;;;12.50;94.60;;;;;;5020703;28;37919;-55
2022/05/01 07:20:24;;;;;;;;;;;12.50;94.30;;;;;;5020382;28;37819;-55
2022/05/01 07:22:51;;;;;;;;;;;12.50;94.80;;;;;;5020061;28;37722;-55
2022/05/01 07:25:18;;;;;;;;;;;12.50;94.00;;;;;;5021097;28;37621;-55
2022/05/01 07:27:45;;;;;;;;;;;12.50;93.50;;;;;;5020580;28;37657;-56
2022/05/01 07:30:13;;;;;;;;;;;12.60;93.50;;;;;;5020965;28;38161;-56
2022/05/01 07:32:40;;;;;;;;;;;12.60;93.30;;;;;;5020290;28;37004;-55
2022/05/01 07:35:07;;;;;;;;;;;12.70;91.90;;;;;;5019757;28;39489;-55
2022/05/01 07:37:36;;;;;;;;;;;12.70;92.00;;;;;;5019807;28;36577;-55
2022/05/01 07:40:03;;;;;;;;;;;12.70;91.60;;;;;;5020478;28;38264;-55
2022/05/01 07:42:30;;;;;;;;;;;12.70;92.00;;;;;;5020276;28;36047;-55
2022/05/01 07:44:57;;;;;;;;;;;12.90;90.40;;;;;;5019793;28;38745;-56
2022/05/01 07:47:24;;;;;;;;;;;12.90;91.20;;;;;;5020436;28;38944;-60
2022/05/01 07:49:51;;;;;;;;;;;13.10;91.20;;;;;;5019857;28;37513;-60
2022/05/01 07:52:19;;;;;;;;;;;13.20;90.40;;;;;;5021081;28;36613;-60
2022/05/01 07:54:47;;;;;;;;;;;13.20;90.70;;;;;;5014631;28;38978;-60
2022/05/01 07:57:14;;;;;;;;;;;13.10;88.40;;;;;;5017854;28;38620;-60
2022/05/01 07:59:42;;;;;;;;;;;13.10;87.70;;;;;;5018143;28;37995;-60
2022/05/01 08:02:09;;;;;;;;;;;13.00;87.80;;;;;;5020037;28;36232;-60
2022/05/01 08:04:35;;;;;;;;;;;12.90;85.40;;;;;;5021594;28;38062;-60
2022/05/01 08:07:03;;;;;;;;;;;12.80;86.80;;;;;;5021490;28;37586;-56
2022/05/01 08:09:31;;;;;;;;;;;12.60;85.40;;;;;;5021147;28;38259;-56
2022/05/01 08:11:59;;;;;;;;;;;12.50;85.70;;;;;;5015151;28;37329;-56
2022/05/01 08:14:26;;;;;;;;;;;12.60;88.50;;;;;;5015051;28;38632;-56
2022/05/01 08:16:54;;;;;;;;;;;12.80;89.40;;;;;;5017632;28;36997;-57
2022/05/01 08:22:06;;;;;;;;;;;13.20;87.70;;;;;;5018194;28;37605;-56
2022/05/01 08:24:33;;;;;;;;;;;13.40;85.90;;;;;;5017866;28;38734;-56
2022/05/01 08:27:05;;;;;;;;;;;13.50;87.40;;;;;;5017582;28;36660;-56
2022/05/01 08:29:33;;;;;;;;;;;13.70;85.40;;;;;;5017968;28;37799;-56
2022/05/01 08:32:00;;;;;;;;;;;13.80;80.80;;;;;;5016634;28;35374;-56
2022/05/01 08:34:28;;;;;;;;;;;13.90;83.90;;;;;;5017875;28;37299;-57
2022/05/01 08:36:55;;;;;;;;;;;13.90;83.90;;;;;;5017071;28;38390;-56
2022/05/01 08:39:22;;;;;;;;;;;13.80;81.60;;;;;;5020227;28;36798;-56
2022/05/01 08:41:52;;;;;;;;;;;13.60;82.40;;;;;;5019300;28;36152;-54
2022/05/01 08:44:30;;;;;;;;;;;13.40;83.20;;;;;;5018199;28;36377;-56
2022/05/01 08:47:01;;;;;;;;;;;13.20;83.50;;;;;;5017699;28;39391;-56
2022/05/01 08:49:29;;;;;;;;;;;13.10;82.40;;;;;;5018084;28;36697;-56
2022/05/01 08:51:57;;;;;;;;;;;13.00;84.10;;;;;;5018824;28;36041;-56
2022/05/01 08:54:25;;;;;;;;;;;12.90;83.60;;;;;;5018405;28;38164;-56
2022/05/01 08:56:52;;;;;;;;;;;12.80;80.00;;;;;;5018453;28;38481;-56
2022/05/01 08:59:20;;;;;;;;;;;12.80;82.60;;;;;;5017009;28;37100;-56
2022/05/01 09:01:52;;;;;;;;;;;12.70;81.90;;;;;;5018090;28;36302;-56
2022/05/01 09:04:19;;;;;;;;;;;12.70;81.80;;;;;;5017564;28;37989;-56
2022/05/01 09:06:49;;;;;;;;;;;12.70;80.60;;;;;;5019147;28;39612;-56
2022/05/01 09:09:17;;;;;;;;;;;12.80;80.80;;;;;;5019784;28;39955;-56
2022/05/01 09:14:29;;;;;;;;;;;13.10;77.70;;;;;;5021204;28;38578;-56
2022/05/01 09:17:17;;;;;;;;;;;13.20;81.00;;;;;;5020017;28;38272;-56
2022/05/01 09:19:44;;;;;;;;;;;13.40;80.80;;;;;;5019786;28;38894;-56
2022/05/01 09:22:12;;;;;;;;;;;13.50;80.10;;;;;;5018469;28;36549;-56
2022/05/01 09:24:39;;;;;;;;;;;13.60;78.10;;;;;;5019647;28;37978;-56
2022/05/01 09:27:06;;;;;;;;;;;13.70;79.50;;;;;;5019986;28;37802;-57
2022/05/01 09:29:34;;;;;;;;;;;13.80;75.60;;;;;;5019609;28;37326;-56
2022/05/01 09:32:03;;;;;;;;;;;13.80;75.60;;;;;;5019474;28;37366;-56
2022/05/01 09:34:32;;;;;;;;;;;13.90;75.70;;;;;;5019459;28;38357;-56
2022/05/01 09:37:01;;;;;;;;;;;13.90;73.80;;;;;;5019091;28;38705;-56
2022/05/01 09:39:29;;;;;;;;;;;14.00;73.30;;;;;;5020134;28;35713;-56
2022/05/01 09:42:12;;;;;;;;;;;14.00;74.10;;;;;;5020070;28;37855;-56
2022/05/01 09:44:39;;;;;;;;;;;14.00;74.40;;;;;;5017814;28;37965;-56
2022/05/01 09:47:07;;;;;;;;;;;14.00;73.90;;;;;;5019109;28;37416;-56
2022/05/01 09:49:48;;;;;;;;;;;14.10;76.30;;;;;;5018648;28;40106;-56
2022/05/01 09:52:15;;;;;;;;;;;14.10;75.80;;;;;;5019688;28;37053;-56
2022/05/01 09:55:01;;;;;;;;;;;14.10;76.70;;;;;;5018447;28;36457;-55
2022/05/01 09:57:28;;;;;;;;;;;14.20;75.20;;;;;;5018983;28;38804;-56
2022/05/01 09:59:55;;;;;;;;;;;14.20;70.70;;;;;;5018868;28;37356;-56
2022/05/01 10:02:28;;;;;;;;;;;14.40;71.60;;;;;;5018467;28;34963;-56
2022/05/01 10:05:03;;;;;;;;;;;14.40;72.60;;;;;;5018937;28;38328;-56
2022/05/01 10:07:33;;;;;;;;;;;14.40;72.00;;;;;;5019398;28;39003;-56
2022/05/01 10:10:03;;;;;;;;;;;14.40;72.30;;;;;;5018880;28;30273;-56
2022/05/01 10:12:33;;;;;;;;;;;14.50;74.70;;;;;;5016347;28;37774;-56
2022/05/01 10:15:00;;;;;;;;;;;14.60;70.10;;;;;;5017868;28;37717;-56
2022/05/01 10:17:27;;;;;;;;;;;14.60;72.90;;;;;;5017849;28;37609;-56
2022/05/01 10:19:54;;;;;;;;;;;14.80;71.80;;;;;;5018602;28;37044;-56
2022/05/01 10:22:28;;;;;;;;;;;14.80;70.90;;;;;;5019621;28;36871;-56
2022/05/01 10:24:55;;;;;;;;;;;14.80;71.10;;;;;;5019850;28;37480;-56
2022/05/01 10:27:26;;;;;;;;;;;14.90;68.10;;;;;;5018437;28;39253;-56
2022/05/01 10:32:56;;;;;;;;;;;14.90;69.80;;;;;;5019921;28;39078;-57
2022/05/01 10:35:32;;;;;;;;;;;15.00;71.80;;;;;;5019072;28;38421;-56
2022/05/01 10:38:28;;;;;;;;;;;15.00;69.00;;;;;;5017643;28;38018;-56
2022/05/01 10:40:58;;;;;;;;;;;15.00;67.70;;;;;;5019201;28;38015;-56
2022/05/01 10:43:27;;;;;;;;;;;14.80;66.10;;;;;;5017836;28;36291;-56
2022/05/01 10:45:57;;;;;;;;;;;14.70;67.20;;;;;;5017508;28;37343;-56
2022/05/01 10:48:31;;;;;;;;;;;14.70;66.90;;;;;;5019103;28;37709;-56
2022/05/01 10:51:13;;;;;;;;;;;14.70;67.70;;;;;;5018213;28;37859;-56
2022/05/01 10:53:42;;;;;;;;;;;14.70;69.70;;;;;;5021926;28;36370;-56
2022/05/01 10:56:22;;;;;;;;;;;14.60;65.60;;;;;;5022297;28;36257;-56
2022/05/01 10:58:49;;;;;;;;;;;14.60;66.40;;;;;;5021389;28;37684;-56
2022/05/01 11:01:16;;;;;;;;;;;14.60;68.30;;;;;;5022548;28;37642;-56
2022/05/01 11:03:51;;;;;;;;;;;14.60;68.20;;;;;;5019858;28;35221;-56
2022/05/01 11:06:21;;;;;;;;;;;14.50;69.20;;;;;;5021417;28;36519;-56
2022/05/01 11:08:50;;;;;;;;;;;14.50;70.10;;;;;;5021363;28;38814;-56
2022/05/01 11:11:19;;;;;;;;;;;14.50;68.60;;;;;;5020254;28;37160;-56
2022/05/01 11:13:46;;;;;;;;;;;14.50;71.00;;;;;;5020963;28;35260;-56
2022/05/01 11:16:13;;;;;;;;;;;14.50;68.20;;;;;;5020892;28;37735;-56
2022/05/01 11:18:53;;;;;;;;;;;14.50;70.70;;;;;;5019319;28;37023;-56
2022/05/01 11:21:33;;;;;;;;;;;14.60;70.50;;;;;;5019588;28;36516;-56
2022/05/01 11:24:02;;;;;;;;;;;14.70;65.60;;;;;;5019763;28;36970;-56
2022/05/01 11:26:30;;;;;;;;;;;14.70;68.10;;;;;;5020389;28;38054;-56
2022/05/01 11:28:57;;;;;;;;;;;14.80;66.10;;;;;;5020526;28;39044;-56
2022/05/01 11:31:41;;;;;;;;;;;14.90;68.30;;;;;;5013440;28;37198;-56
2022/05/01 11:34:32;;;;;;;;;;;15.00;69.30;;;;;;5015817;28;36954;-55
2022/05/01 11:37:01;;;;;;;;;;;14.90;66.50;;;;;;5002214;28;38396;-54
2022/05/01 11:39:43;;;;;;;;;;;15.00;67.40;;;;;;5017543;28;38572;-56
2022/05/01 11:42:25;;;;;;;;;;;15.00;66.30;;;;;;5015215;28;38548;-56
2022/05/01 11:44:55;;;;;;;;;;;15.00;65.80;;;;;;5017127;28;37352;-56
2022/05/01 11:47:22;;;;;;;;;;;14.90;64.50;;;;;;5018682;28;36478;-56
2022/05/01 11:49:50;;;;;;;;;;;14.90;64.20;;;;;;5016596;28;37963;-56
2022/05/01 11:52:18;;;;;;;;;;;14.80;63.00;;;;;;5017358;28;37524;-55
2022/05/01 11:54:47;;;;;;;;;;;14.80;66.30;;;;;;5017122;28;36514;-56
2022/05/01 12:03:05;;;;;;;;;;;15.00;69.70;;;;;;5017328;28;37167;-56
2022/05/01 12:05:32;;;;;;;;;;;15.00;67.00;;;;;;5015401;28;36418;-56
2022/05/01 12:07:59;;;;;;;;;;;15.00;65.90;;;;;;5016800;28;38171;-56
2022/05/01 12:10:27;;;;;;;;;;;15.00;62.70;;;;;;5020111;28;36773;-56
2022/05/01 12:12:54;;;;;;;;;;;15.00;64.00;;;;;;5019185;28;38328;-56
2022/05/01 12:15:22;;;;;;;;;;;15.00;61.00;;;;;;5020424;28;36165;-56
2022/05/01 12:17:49;;;;;;;;;;;15.00;63.40;;;;;;5019900;28;38935;-56
2022/05/01 12:20:16;;;;;;;;;;;15.10;64.90;;;;;;5019514;28;37801;-55
2022/05/01 12:22:43;;;;;;;;;;;15.20;68.00;;;;;;5019890;28;37251;-56
2022/05/01 12:25:15;;;;;;;;;;;15.20;63.40;;;;;;5020798;28;37358;-56
2022/05/01 12:27:42;;;;;;;;;;;15.20;65.70;;;;;;5020251;28;38885;-56
2022/05/01 12:30:10;;;;;;;;;;;15.30;66.10;;;;;;5018246;28;39450;-56
2022/05/01 12:32:52;;;;;;;;;;;15.30;65.40;;;;;;5021544;28;35882;-56
2022/05/01 12:35:19;;;;;;;;;;;15.30;62.10;;;;;;5021970;28;37204;-56
2022/05/01 12:37:49;;;;;;;;;;;15.30;59.70;;;;;;5022199;28;38280;-56
2022/05/01 12:43:50;;;;;;;;;;;15.30;58.90;;;;;;5020833;28;37721;-56
2022/05/01 12:46:21;;;;;;;;;;;15.20;62.10;;;;;;5021584;28;37690;-56
2022/05/01 12:48:50;;;;;;;;;;;15.20;62.50;;;;;;5021655;28;36996;-56
2022/05/01 12:51:17;;;;;;;;;;;15.10;60.40;;;;;;5020921;28;38988;-56
2022/05/01 12:53:44;;;;;;;;;;;15.00;61.00;;;;;;5023651;28;36011;-57
2022/05/01 12:56:17;;;;;;;;;;;14.90;63.00;;;;;;5022220;28;36405;-56
2022/05/01 12:58:44;;;;;;;;;;;14.90;61.70;;;;;;5021906;28;37434;-56
2022/05/01 13:01:21;;;;;;;;;;;14.80;63.00;;;;;;5022528;28;37941;-56
2022/05/01 13:03:50;;;;;;;;;;;14.80;61.10;;;;;;5015968;28;38178;-56
2022/05/01 13:06:18;;;;;;;;;;;14.80;61.40;;;;;;5018476;28;39426;-56
2022/05/01 13:08:46;;;;;;;;;;;14.90;62.90;;;;;;5020222;28;38376;-56
2022/05/01 13:11:14;;;;;;;;;;;15.00;64.00;;;;;;5020285;28;39698;-56
2022/05/01 13:13:42;;;;;;;;;;;15.00;62.00;;;;;;5018778;28;38263;-56
2022/05/01 13:16:10;;;;;;;;;;;15.00;59.20;;;;;;5019053;28;35702;-56
2022/05/01 13:18:37;;;;;;;;;;;15.00;58.80;;;;;;5019738;28;38453;-56
2022/05/01 13:21:06;;;;;;;;;;;15.00;58.10;;;;;;5021738;28;37862;-56
2022/05/01 13:23:33;;;;;;;;;;;15.00;62.60;;;;;;5021268;28;38128;-56
2022/05/01 13:26:01;;;;;;;;;;;15.00;64.30;;;;;;5021942;28;37598;-56
2022/05/01 13:28:29;;;;;;;;;;;15.10;65.30;;;;;;5021362;28;37732;-56
2022/05/01 13:30:56;;;;;;;;;;;15.10;65.00;;;;;;5022476;28;37879;-56
2022/05/01 13:33:23;;;;;;;;;;;15.20;64.40;;;;;;5021967;28;38307;-56
2022/05/01 13:35:51;;;;;;;;;;;15.20;64.60;;;;;;5020981;28;36157;-56
2022/05/01 13:38:19;;;;;;;;;;;15.20;65.20;;;;;;5021948;28;37479;-56
2022/05/01 13:46:18;;;;;;;;;;;14.90;58.30;;;;;;5006017;28;36753;-56
2022/05/01 13:48:45;;;;;;;;;;;14.80;56.80;;;;;;5021184;28;40418;-56
2022/05/01 13:51:14;;;;;;;;;;;14.70;59.90;;;;;;5021546;28;37782;-56
2022/05/01 13:53:42;;;;;;;;;;;14.70;61.00;;;;;;5021224;28;36492;-56
2022/05/01 13:56:11;;;;;;;;;;;14.70;60.10;;;;;;5021538;28;35962;-56
2022/05/01 13:58:38;;;;;;;;;;;14.70;63.40;;;;;;5018018;28;38131;-56
2022/05/01 14:01:05;;;;;;;;;;;14.70;62.90;;;;;;5015325;28;39090;-56
2022/05/01 14:03:33;;;;;;;;;;;14.70;62.80;;;;;;5019172;28;37983;-56
2022/05/01 14:06:00;;;;;;;;;;;14.80;61.90;;;;;;5019077;28;36440;-57
2022/05/01 14:08:27;;;;;;;;;;;14.80;63.00;;;;;;5018030;28;38810;-56
2022/05/01 14:10:55;;;;;;;;;;;14.70;61.40;;;;;;5016597;28;38039;-56
2022/05/01 14:13:22;;;;;;;;;;;14.80;66.90;;;;;;5018371;28;35910;-56
2022/05/01 14:15:49;;;;;;;;;;;14.70;70.10;;;;;;5015994;28;36777;-56
2022/05/01 14:18:18;;;;;;;;;;;14.70;69.90;;;;;;5018798;28;36540;-56
2022/05/01 14:20:46;;;;;;;;;;;14.60;68.90;;;;;;5017763;28;37301;-57
2022/05/01 14:23:14;;;;;;;;;;;14.70;72.50;;;;;;5017355;28;37288;-56
2022/05/01 14:25:42;;;;;;;;;;;14.70;70.90;;;;;;5017266;28;35040;-56
2022/05/01 14:28:11;;;;;;;;;;;14.80;74.30;;;;;;5017469;28;37421;-56
2022/05/01 14:30:42;;;;;;;;;;;14.80;71.90;;;;;;5017150;28;39623;-56
2022/05/01 14:33:14;;;;;;;;;;;14.80;72.80;;;;;;5017754;28;37297;-56
2022/05/01 14:35:46;;;;;;;;;;;14.80;71.80;;;;;;5018665;28;37529;-56
2022/05/01 14:38:17;;;;;;;;;;;14.80;73.40;;;;;;5017594;28;39125;-56
2022/05/01 14:40:46;;;;;;;;;;;14.80;74.70;;;;;;5016873;28;37045;-56
2022/05/01 14:43:17;;;;;;;;;;;14.80;74.70;;;;;;5018711;28;39790;-56
2022/05/01 14:45:48;;;;;;;;;;;14.80;73.70;;;;;;5017107;28;37371;-56
2022/05/01 14:48:16;;;;;;;;;;;14.70;71.00;;;;;;5018098;28;37999;-56
2022/05/01 14:50:44;;;;;;;;;;;14.70;74.50;;;;;;5017277;28;38677;-56
2022/05/01 14:53:12;;;;;;;;;;;14.70;73.60;;;;;;5016700;28;37673;-56
2022/05/01 14:55:40;;;;;;;;;;;14.60;74.10;;;;;;5017046;28;36923;-56
2022/05/01 15:06:17;;;;;;;;;;;14.50;71.90;;;;;;5018169;28;38088;-56
2022/05/01 15:06:29;;;;;;;;;;;14.40;73.00;;;;;;5016903;28;40303;-56
2022/05/01 15:09:03;;;;;;;;;;;14.40;73.80;;;;;;5015623;28;37737;-56
2022/05/01 15:11:30;;;;;;;;;;;14.40;73.00;;;;;;5016834;28;39153;-56